Relevés horaires Saint-Mandrier-sur-Mer - Cap Cépet (France)


Relevés horaires à Saint-Mandrier-sur-Mer - Cap Cépet - Jeudi 06 Févr. 2020
Heure UTC1 Température [°C] Vent [km/h] Hum. [%] Pres.4 [hPa] Visi. [Km] Nébu. [octa] Préc.5 [mm] Cond.
2m. Res. Ros. Dir.2 Vit. Moy. Raf.3
23:00 6.4 4.1 2.8 SE 11.1 -- 14.8 78 -- -- -- -- --
22:00 7.3 5.5 3.7 SE 9.3 -- 13.0 78 -- -- -- -- --
21:00 8.4 6.9 4.6 E 9.3 -- 11.1 77 -- -- -- -- --
20:00 9.1 8.1 4.1 E 7.4 -- 11.1 71 -- -- -- -- --
19:00 10.3 9.5 2.9 E 7.4 -- 9.3 60 -- -- -- -- --
18:00 10.8 10.1 2.6 ESE 7.4 -- 11.1 57 -- 20 7/8 -- --
17:00 10.9 10.2 1.7 ESE 7.4 -- 13.0 53 -- -- -- -- --
16:00 11.4 10.8 4.4 ESE 7.4 -- 14.8 62 -- -- -- -- --
15:00 12.0 11.1 4.0 E 9.3 -- 16.7 58 -- 30 6/8 -- --
14:00 12.8 12.1 4.2 E 9.3 -- 14.8 56 -- -- -- -- --
13:00 13.9 13.4 3.6 E 9.3 -- 13.0 50 1029.4(0.1/3h) -- -- -- --
12:00 14.0 13.5 4.0 E 9.3 -- 14.8 51 1029.6(0.7/3h) -- -- -- --
11:00 13.0 13 4.2 E 5.6 -- 13.0 55 1029.8(1.0/3h) -- -- -- --
10:00 11.3 11.1 4.0 ESE 5.6 -- 9.3 61 1029.6(1.0/3h) -- -- -- --
09:00 8.4 7.7 3.8 E 5.6 -- 11.1 73 1029.2(0.7/3h) 30 6/8 -- --
08:00 8.4 6.5 0.4 E 11.1 -- 13.0 57 1029.1(1.2/3h) -- -- -- --
07:00 7.8 6.1 0.3 E 9.3 -- 13.0 59 1028.8(0.7/3h) -- -- -- --
06:00 8.5 7.4 1.9 ENE 7.4 -- 14.8 63 1028.5(0.5/3h) 15 0/8 -- --
05:00 7.7 5.7 1.3 E 11.1 -- 13.0 64 1027.9(-0.4/3h) -- -- -- --
04:00 9.7 9.7 2.8 E 3.7 -- 5.6 62 1028(0.4/3h) -- -- -- --
03:00 9.7 9.7 1.8 E 3.7 -- 5.6 58 1027.9(0.8/3h) -- -- -- --
02:00 10.7 10.7 2.8 NNO 1.9 -- 7.4 58 1028.2(1.5/3h) -- -- -- --
01:00 9.5 9.5 0.1 ENE 1.9 -- 9.3 52 1027.6(1.4/3h) -- -- -- --
00:00 10.1 9.7 -1.9 E 5.6 -- 9.3 43 1027.1(1.9/3h) -- -- -- --

1 Coordinated Universal Time. Actuellement il est 02:00 locale et 00:00 UTC.

2 Le vent souffle depuis la direction indiquée vers la direction oposée.

3 Les rafales max. sont disponible 40 min après l'heure du relevé.

4 Pour les stations d'altitude (plus de 600m) le géopotentiel du niveau le plus proche de la pression obligatoire est indiqué.

5 Les stations disposant d'un diffuseur peuvent indiquer "trace". Cela signifie que des précipitations ont touchés le sol mais que la quantité est inférieure à 0.1 mm.

Récapitulatif de la journée
Température [°C] Vent [km/h] Ensoleillement4 [h] Precipitations totale5 [mm] Pression [Hpa]
Min1 Max.2 Moy.3 Max. Min Max.
7.5 14.2 0 16.7 0 h 0 min 0 -- 1029.8

1 Température minimale relevée entre 18:00 UTC la veille et 18:00 UTC le jour donné.

2 Température maximale relevée entre 06:00 UTC le jour donné et 06:00 UTC le lendemain.

3 Vent moyen de la journée basé sur les relevés horaires.

4 Ensoleillement en heures relevé entre 06:00 UTC la veille et 06:00 UTC le jour donné.

5 Précipitations totales tombées entre 06:00 UTC la jour donné et 06:00 UTC le lendemain.

Graphiques horaires